sensor_id;sensor_type;location;lat;lon;timestamp;P1;durP1;ratioP1;P2;durP2;ratioP2
73264;SDS011;61493;51.008;14.088;2022-11-15T00:00:49;53.25;;;26.48;;
73264;SDS011;61493;51.008;14.088;2022-11-15T00:03:26;56.75;;;27.98;;
73264;SDS011;61493;51.008;14.088;2022-11-15T00:05:52;48.03;;;25.33;;
73264;SDS011;61493;51.008;14.088;2022-11-15T00:08:18;50.78;;;25.27;;
73264;SDS011;61493;51.008;14.088;2022-11-15T00:10:54;67.50;;;31.70;;
73264;SDS011;61493;51.008;14.088;2022-11-15T00:13:20;63.72;;;31.33;;
73264;SDS011;61493;51.008;14.088;2022-11-15T00:15:49;52.42;;;25.33;;
73264;SDS011;61493;51.008;14.088;2022-11-15T00:18:14;64.57;;;31.80;;
73264;SDS011;61493;51.008;14.088;2022-11-15T00:20:40;58.05;;;28.23;;
73264;SDS011;61493;51.008;14.088;2022-11-15T00:23:06;56.83;;;27.42;;
73264;SDS011;61493;51.008;14.088;2022-11-15T00:25:31;66.35;;;29.30;;
73264;SDS011;61493;51.008;14.088;2022-11-15T00:27:57;60.88;;;28.70;;
73264;SDS011;61493;51.008;14.088;2022-11-15T00:30:24;58.28;;;28.05;;
73264;SDS011;61493;51.008;14.088;2022-11-15T00:32:49;69.90;;;29.73;;
73264;SDS011;61493;51.008;14.088;2022-11-15T00:35:15;61.47;;;29.70;;
73264;SDS011;61493;51.008;14.088;2022-11-15T00:37:40;61.08;;;29.35;;
73264;SDS011;61493;51.008;14.088;2022-11-15T00:40:06;76.75;;;34.22;;
73264;SDS011;61493;51.008;14.088;2022-11-15T00:42:32;69.10;;;32.78;;
73264;SDS011;61493;51.008;14.088;2022-11-15T00:44:57;65.03;;;31.85;;
73264;SDS011;61493;51.008;14.088;2022-11-15T00:47:22;61.00;;;29.85;;
73264;SDS011;61493;51.008;14.088;2022-11-15T00:49:47;61.67;;;29.95;;
73264;SDS011;61493;51.008;14.088;2022-11-15T00:52:13;66.55;;;31.25;;
73264;SDS011;61493;51.008;14.088;2022-11-15T00:54:38;58.25;;;29.38;;
73264;SDS011;61493;51.008;14.088;2022-11-15T00:57:03;56.42;;;27.95;;
73264;SDS011;61493;51.008;14.088;2022-11-15T00:59:29;64.40;;;31.00;;
73264;SDS011;61493;51.008;14.088;2022-11-15T01:01:55;56.60;;;28.30;;
73264;SDS011;61493;51.008;14.088;2022-11-15T01:04:20;61.47;;;30.52;;
73264;SDS011;61493;51.008;14.088;2022-11-15T01:06:45;59.85;;;29.52;;
73264;SDS011;61493;51.008;14.088;2022-11-15T01:09:11;52.80;;;27.45;;
73264;SDS011;61493;51.008;14.088;2022-11-15T01:11:36;59.50;;;29.95;;
73264;SDS011;61493;51.008;14.088;2022-11-15T01:14:01;66.00;;;30.88;;
73264;SDS011;61493;51.008;14.088;2022-11-15T01:16:27;63.97;;;32.95;;
73264;SDS011;61493;51.008;14.088;2022-11-15T01:18:52;60.90;;;29.27;;
73264;SDS011;61493;51.008;14.088;2022-11-15T01:21:18;56.20;;;28.10;;
73264;SDS011;61493;51.008;14.088;2022-11-15T01:23:44;61.33;;;29.13;;
73264;SDS011;61493;51.008;14.088;2022-11-15T01:26:11;59.25;;;28.00;;
73264;SDS011;61493;51.008;14.088;2022-11-15T01:28:39;55.55;;;28.20;;
73264;SDS011;61493;51.008;14.088;2022-11-15T01:31:12;66.95;;;30.73;;
73264;SDS011;61493;51.008;14.088;2022-11-15T01:33:40;65.65;;;31.40;;
73264;SDS011;61493;51.008;14.088;2022-11-15T01:36:16;59.97;;;29.33;;
73264;SDS011;61493;51.008;14.088;2022-11-15T01:38:46;62.97;;;29.10;;
73264;SDS011;61493;51.008;14.088;2022-11-15T01:41:19;58.92;;;30.50;;
73264;SDS011;61493;51.008;14.088;2022-11-15T01:43:47;65.25;;;29.83;;
73264;SDS011;61493;51.008;14.088;2022-11-15T01:49:01;57.85;;;26.48;;
73264;SDS011;61493;51.008;14.088;2022-11-15T01:51:35;63.60;;;29.20;;
73264;SDS011;61493;51.008;14.088;2022-11-15T01:54:02;68.60;;;30.70;;
73264;SDS011;61493;51.008;14.088;2022-11-15T01:56:32;67.07;;;30.15;;
73264;SDS011;61493;51.008;14.088;2022-11-15T01:59:02;66.07;;;32.33;;
73264;SDS011;61493;51.008;14.088;2022-11-15T02:01:30;65.20;;;29.85;;
73264;SDS011;61493;51.008;14.088;2022-11-15T02:04:13;55.42;;;26.63;;
73264;SDS011;61493;51.008;14.088;2022-11-15T02:06:42;58.35;;;30.25;;
73264;SDS011;61493;51.008;14.088;2022-11-15T02:09:09;66.78;;;32.90;;
73264;SDS011;61493;51.008;14.088;2022-11-15T02:11:36;82.50;;;38.78;;
73264;SDS011;61493;51.008;14.088;2022-11-15T02:14:01;70.45;;;28.58;;
73264;SDS011;61493;51.008;14.088;2022-11-15T02:16:43;76.43;;;34.55;;
73264;SDS011;61493;51.008;14.088;2022-11-15T02:33:28;70.10;;;30.35;;
73264;SDS011;61493;51.008;14.088;2022-11-15T02:38:52;59.03;;;30.85;;
73264;SDS011;61493;51.008;14.088;2022-11-15T02:41:31;58.70;;;28.23;;
73264;SDS011;61493;51.008;14.088;2022-11-15T02:44:13;66.10;;;28.60;;
73264;SDS011;61493;51.008;14.088;2022-11-15T02:46:45;69.22;;;31.42;;
73264;SDS011;61493;51.008;14.088;2022-11-15T02:49:37;61.92;;;30.48;;
73264;SDS011;61493;51.008;14.088;2022-11-15T02:52:06;63.55;;;29.67;;
73264;SDS011;61493;51.008;14.088;2022-11-15T02:54:32;64.18;;;29.08;;
73264;SDS011;61493;51.008;14.088;2022-11-15T02:57:03;69.38;;;29.83;;
73264;SDS011;61493;51.008;14.088;2022-11-15T03:08:31;62.92;;;30.15;;
73264;SDS011;61493;51.008;14.088;2022-11-15T03:19:23;60.00;;;25.52;;
73264;SDS011;61493;51.008;14.088;2022-11-15T03:21:57;68.20;;;33.00;;
73264;SDS011;61493;51.008;14.088;2022-11-15T03:24:26;65.45;;;30.00;;
73264;SDS011;61493;51.008;14.088;2022-11-15T03:27:14;60.97;;;28.20;;
73264;SDS011;61493;51.008;14.088;2022-11-15T03:29:43;65.05;;;29.50;;
73264;SDS011;61493;51.008;14.088;2022-11-15T03:32:18;69.18;;;28.20;;
73264;SDS011;61493;51.008;14.088;2022-11-15T03:34:52;65.90;;;29.95;;
73264;SDS011;61493;51.008;14.088;2022-11-15T03:37:25;74.63;;;32.05;;
73264;SDS011;61493;51.008;14.088;2022-11-15T03:39:55;58.80;;;26.85;;
73264;SDS011;61493;51.008;14.088;2022-11-15T03:47:40;67.38;;;29.05;;
73264;SDS011;61493;51.008;14.088;2022-11-15T03:50:15;55.90;;;27.92;;
73264;SDS011;61493;51.008;14.088;2022-11-15T03:52:44;65.13;;;29.98;;
73264;SDS011;61493;51.008;14.088;2022-11-15T03:55:13;59.78;;;30.58;;
73264;SDS011;61493;51.008;14.088;2022-11-15T03:57:40;59.17;;;28.63;;
73264;SDS011;61493;51.008;14.088;2022-11-15T04:00:06;62.83;;;29.17;;
73264;SDS011;61493;51.008;14.088;2022-11-15T04:02:31;63.80;;;29.88;;
73264;SDS011;61493;51.008;14.088;2022-11-15T04:04:57;60.47;;;28.15;;
73264;SDS011;61493;51.008;14.088;2022-11-15T04:07:22;65.25;;;30.77;;
73264;SDS011;61493;51.008;14.088;2022-11-15T04:09:47;63.58;;;27.38;;
73264;SDS011;61493;51.008;14.088;2022-11-15T04:12:28;61.85;;;28.52;;
73264;SDS011;61493;51.008;14.088;2022-11-15T04:15:02;59.50;;;28.67;;
73264;SDS011;61493;51.008;14.088;2022-11-15T04:23:12;62.67;;;28.98;;
73264;SDS011;61493;51.008;14.088;2022-11-15T04:25:58;62.67;;;28.73;;
73264;SDS011;61493;51.008;14.088;2022-11-15T04:28:44;63.05;;;30.25;;
73264;SDS011;61493;51.008;14.088;2022-11-15T04:31:28;53.90;;;25.95;;
73264;SDS011;61493;51.008;14.088;2022-11-15T04:33:54;61.08;;;26.42;;
73264;SDS011;61493;51.008;14.088;2022-11-15T04:36:20;56.05;;;28.02;;
73264;SDS011;61493;51.008;14.088;2022-11-15T04:39:05;61.80;;;27.55;;
73264;SDS011;61493;51.008;14.088;2022-11-15T04:41:31;52.25;;;26.38;;
73264;SDS011;61493;51.008;14.088;2022-11-15T04:43:56;64.93;;;30.52;;
73264;SDS011;61493;51.008;14.088;2022-11-15T04:46:22;54.30;;;29.70;;
73264;SDS011;61493;51.008;14.088;2022-11-15T04:48:48;56.53;;;29.40;;
73264;SDS011;61493;51.008;14.088;2022-11-15T04:51:14;65.28;;;28.60;;
73264;SDS011;61493;51.008;14.088;2022-11-15T04:53:39;61.80;;;28.90;;
73264;SDS011;61493;51.008;14.088;2022-11-15T04:56:04;55.70;;;26.58;;
73264;SDS011;61493;51.008;14.088;2022-11-15T04:58:30;66.60;;;29.30;;
73264;SDS011;61493;51.008;14.088;2022-11-15T05:00:55;51.25;;;24.02;;
73264;SDS011;61493;51.008;14.088;2022-11-15T05:03:21;59.97;;;27.15;;
73264;SDS011;61493;51.008;14.088;2022-11-15T05:06:05;61.17;;;27.45;;
73264;SDS011;61493;51.008;14.088;2022-11-15T05:08:30;73.95;;;31.15;;
73264;SDS011;61493;51.008;14.088;2022-11-15T05:10:55;65.78;;;29.00;;
73264;SDS011;61493;51.008;14.088;2022-11-15T05:13:21;69.30;;;30.08;;
73264;SDS011;61493;51.008;14.088;2022-11-15T05:15:46;61.20;;;28.27;;
73264;SDS011;61493;51.008;14.088;2022-11-15T05:18:12;55.80;;;27.33;;
73264;SDS011;61493;51.008;14.088;2022-11-15T05:20:37;66.90;;;27.80;;
73264;SDS011;61493;51.008;14.088;2022-11-15T05:23:02;66.95;;;31.20;;
73264;SDS011;61493;51.008;14.088;2022-11-15T05:25:31;62.83;;;29.17;;
73264;SDS011;61493;51.008;14.088;2022-11-15T05:27:56;70.03;;;29.02;;
73264;SDS011;61493;51.008;14.088;2022-11-15T05:30:22;56.13;;;26.63;;
73264;SDS011;61493;51.008;14.088;2022-11-15T05:32:47;63.83;;;28.85;;
73264;SDS011;61493;51.008;14.088;2022-11-15T05:35:15;70.78;;;29.45;;
73264;SDS011;61493;51.008;14.088;2022-11-15T05:37:46;79.28;;;34.92;;
73264;SDS011;61493;51.008;14.088;2022-11-15T05:40:12;66.57;;;28.00;;
73264;SDS011;61493;51.008;14.088;2022-11-15T05:42:38;60.20;;;28.42;;
73264;SDS011;61493;51.008;14.088;2022-11-15T05:45:04;66.53;;;31.88;;
73264;SDS011;61493;51.008;14.088;2022-11-15T05:47:31;61.10;;;27.52;;
73264;SDS011;61493;51.008;14.088;2022-11-15T05:49:58;67.00;;;28.83;;
73264;SDS011;61493;51.008;14.088;2022-11-15T05:52:25;69.93;;;30.58;;
73264;SDS011;61493;51.008;14.088;2022-11-15T05:54:53;62.85;;;28.45;;
73264;SDS011;61493;51.008;14.088;2022-11-15T05:57:23;67.57;;;31.13;;
73264;SDS011;61493;51.008;14.088;2022-11-15T05:59:49;52.85;;;26.58;;
73264;SDS011;61493;51.008;14.088;2022-11-15T06:02:14;66.70;;;29.55;;
73264;SDS011;61493;51.008;14.088;2022-11-15T06:04:39;69.32;;;32.05;;
73264;SDS011;61493;51.008;14.088;2022-11-15T06:07:05;61.35;;;29.08;;
73264;SDS011;61493;51.008;14.088;2022-11-15T06:09:30;68.57;;;31.38;;
73264;SDS011;61493;51.008;14.088;2022-11-15T06:11:55;65.43;;;28.55;;
73264;SDS011;61493;51.008;14.088;2022-11-15T06:14:21;68.22;;;29.98;;
73264;SDS011;61493;51.008;14.088;2022-11-15T06:16:46;74.40;;;29.10;;
73264;SDS011;61493;51.008;14.088;2022-11-15T06:19:11;75.57;;;30.42;;
73264;SDS011;61493;51.008;14.088;2022-11-15T06:21:42;71.35;;;29.42;;
73264;SDS011;61493;51.008;14.088;2022-11-15T06:24:07;62.50;;;29.70;;
73264;SDS011;61493;51.008;14.088;2022-11-15T06:26:33;68.95;;;30.63;;
73264;SDS011;61493;51.008;14.088;2022-11-15T06:28:58;69.82;;;30.67;;
73264;SDS011;61493;51.008;14.088;2022-11-15T06:31:23;58.58;;;25.88;;
73264;SDS011;61493;51.008;14.088;2022-11-15T06:33:49;73.85;;;30.13;;
73264;SDS011;61493;51.008;14.088;2022-11-15T06:36:14;63.85;;;28.10;;
73264;SDS011;61493;51.008;14.088;2022-11-15T06:38:41;59.42;;;27.08;;
73264;SDS011;61493;51.008;14.088;2022-11-15T06:41:08;65.35;;;28.85;;
73264;SDS011;61493;51.008;14.088;2022-11-15T06:43:34;79.80;;;31.55;;
73264;SDS011;61493;51.008;14.088;2022-11-15T06:46:01;67.00;;;30.20;;
73264;SDS011;61493;51.008;14.088;2022-11-15T06:48:28;57.90;;;25.55;;
73264;SDS011;61493;51.008;14.088;2022-11-15T06:50:55;83.97;;;31.17;;
73264;SDS011;61493;51.008;14.088;2022-11-15T06:53:21;65.95;;;28.33;;
73264;SDS011;61493;51.008;14.088;2022-11-15T06:55:47;56.63;;;24.60;;
73264;SDS011;61493;51.008;14.088;2022-11-15T06:58:12;76.60;;;28.92;;
73264;SDS011;61493;51.008;14.088;2022-11-15T07:00:38;63.75;;;26.95;;
73264;SDS011;61493;51.008;14.088;2022-11-15T07:03:03;66.60;;;29.33;;
73264;SDS011;61493;51.008;14.088;2022-11-15T07:05:29;63.95;;;25.73;;
73264;SDS011;61493;51.008;14.088;2022-11-15T07:07:54;67.88;;;25.80;;
73264;SDS011;61493;51.008;14.088;2022-11-15T07:10:21;64.43;;;28.75;;
73264;SDS011;61493;51.008;14.088;2022-11-15T07:12:49;47.67;;;25.55;;
73264;SDS011;61493;51.008;14.088;2022-11-15T07:15:22;61.63;;;23.85;;
73264;SDS011;61493;51.008;14.088;2022-11-15T07:17:48;60.28;;;25.48;;
73264;SDS011;61493;51.008;14.088;2022-11-15T07:20:14;67.82;;;28.63;;
73264;SDS011;61493;51.008;14.088;2022-11-15T07:22:40;62.67;;;30.00;;
73264;SDS011;61493;51.008;14.088;2022-11-15T07:25:06;68.85;;;31.63;;
73264;SDS011;61493;51.008;14.088;2022-11-15T07:27:32;54.45;;;25.17;;
73264;SDS011;61493;51.008;14.088;2022-11-15T07:29:57;61.10;;;26.83;;
73264;SDS011;61493;51.008;14.088;2022-11-15T07:32:23;55.42;;;24.90;;
73264;SDS011;61493;51.008;14.088;2022-11-15T07:34:48;59.40;;;26.85;;
73264;SDS011;61493;51.008;14.088;2022-11-15T07:37:13;55.97;;;25.17;;
73264;SDS011;61493;51.008;14.088;2022-11-15T07:39:39;55.03;;;25.08;;
73264;SDS011;61493;51.008;14.088;2022-11-15T07:42:04;66.70;;;25.77;;
73264;SDS011;61493;51.008;14.088;2022-11-15T07:44:48;56.60;;;25.92;;
73264;SDS011;61493;51.008;14.088;2022-11-15T07:47:13;61.50;;;28.17;;
73264;SDS011;61493;51.008;14.088;2022-11-15T07:49:39;58.90;;;24.63;;
73264;SDS011;61493;51.008;14.088;2022-11-15T07:52:04;56.78;;;25.92;;
73264;SDS011;61493;51.008;14.088;2022-11-15T07:54:29;48.78;;;24.08;;
73264;SDS011;61493;51.008;14.088;2022-11-15T07:56:57;47.47;;;22.23;;
73264;SDS011;61493;51.008;14.088;2022-11-15T07:59:23;54.20;;;24.73;;
73264;SDS011;61493;51.008;14.088;2022-11-15T08:01:48;50.67;;;23.60;;
73264;SDS011;61493;51.008;14.088;2022-11-15T08:04:13;56.58;;;23.98;;
73264;SDS011;61493;51.008;14.088;2022-11-15T08:06:39;51.00;;;23.20;;
73264;SDS011;61493;51.008;14.088;2022-11-15T08:09:04;62.75;;;23.23;;
73264;SDS011;61493;51.008;14.088;2022-11-15T08:11:29;50.28;;;21.48;;
73264;SDS011;61493;51.008;14.088;2022-11-15T08:13:55;44.55;;;21.70;;
73264;SDS011;61493;51.008;14.088;2022-11-15T08:16:20;41.20;;;21.27;;
73264;SDS011;61493;51.008;14.088;2022-11-15T08:18:46;43.20;;;22.05;;
73264;SDS011;61493;51.008;14.088;2022-11-15T08:21:12;37.45;;;18.00;;
73264;SDS011;61493;51.008;14.088;2022-11-15T08:23:42;47.67;;;20.85;;
73264;SDS011;61493;51.008;14.088;2022-11-15T08:26:11;40.25;;;19.25;;
73264;SDS011;61493;51.008;14.088;2022-11-15T08:28:36;35.70;;;16.75;;
73264;SDS011;61493;51.008;14.088;2022-11-15T08:31:02;35.70;;;19.63;;
73264;SDS011;61493;51.008;14.088;2022-11-15T08:33:27;37.17;;;18.67;;
73264;SDS011;61493;51.008;14.088;2022-11-15T08:35:55;40.33;;;19.58;;
73264;SDS011;61493;51.008;14.088;2022-11-15T08:38:22;36.97;;;16.35;;
73264;SDS011;61493;51.008;14.088;2022-11-15T08:40:47;35.20;;;17.27;;
73264;SDS011;61493;51.008;14.088;2022-11-15T08:43:13;32.88;;;16.13;;
73264;SDS011;61493;51.008;14.088;2022-11-15T08:45:38;31.33;;;16.40;;
73264;SDS011;61493;51.008;14.088;2022-11-15T08:48:03;33.83;;;16.45;;
73264;SDS011;61493;51.008;14.088;2022-11-15T08:50:29;30.45;;;16.23;;
73264;SDS011;61493;51.008;14.088;2022-11-15T08:52:55;38.28;;;19.20;;
73264;SDS011;61493;51.008;14.088;2022-11-15T08:55:20;30.63;;;16.02;;
73264;SDS011;61493;51.008;14.088;2022-11-15T08:57:49;27.85;;;15.25;;
73264;SDS011;61493;51.008;14.088;2022-11-15T09:00:14;27.02;;;13.90;;
73264;SDS011;61493;51.008;14.088;2022-11-15T09:02:40;29.05;;;14.85;;
73264;SDS011;61493;51.008;14.088;2022-11-15T09:05:05;26.85;;;13.63;;
73264;SDS011;61493;51.008;14.088;2022-11-15T09:07:32;26.73;;;13.60;;
73264;SDS011;61493;51.008;14.088;2022-11-15T09:09:58;23.40;;;13.50;;
73264;SDS011;61493;51.008;14.088;2022-11-15T09:12:23;26.55;;;13.63;;
73264;SDS011;61493;51.008;14.088;2022-11-15T09:14:49;23.00;;;12.82;;
73264;SDS011;61493;51.008;14.088;2022-11-15T09:17:15;24.80;;;14.55;;
73264;SDS011;61493;51.008;14.088;2022-11-15T09:19:40;23.33;;;13.52;;
73264;SDS011;61493;51.008;14.088;2022-11-15T09:22:06;26.75;;;14.05;;
73264;SDS011;61493;51.008;14.088;2022-11-15T09:24:33;30.13;;;16.08;;
73264;SDS011;61493;51.008;14.088;2022-11-15T09:26:58;27.40;;;14.95;;
73264;SDS011;61493;51.008;14.088;2022-11-15T09:29:26;27.73;;;14.98;;
73264;SDS011;61493;51.008;14.088;2022-11-15T09:31:55;26.00;;;13.50;;
73264;SDS011;61493;51.008;14.088;2022-11-15T09:34:20;28.27;;;15.73;;
73264;SDS011;61493;51.008;14.088;2022-11-15T09:36:49;24.55;;;12.90;;
73264;SDS011;61493;51.008;14.088;2022-11-15T09:39:14;26.08;;;13.88;;
73264;SDS011;61493;51.008;14.088;2022-11-15T09:44:37;27.67;;;14.23;;
73264;SDS011;61493;51.008;14.088;2022-11-15T09:49:52;27.70;;;14.23;;
73264;SDS011;61493;51.008;14.088;2022-11-15T09:52:20;27.15;;;13.10;;
73264;SDS011;61493;51.008;14.088;2022-11-15T09:54:47;28.48;;;14.98;;
73264;SDS011;61493;51.008;14.088;2022-11-15T09:57:24;27.30;;;14.30;;
73264;SDS011;61493;51.008;14.088;2022-11-15T10:05:41;27.13;;;14.80;;
73264;SDS011;61493;51.008;14.088;2022-11-15T10:11:37;26.20;;;14.40;;
73264;SDS011;61493;51.008;14.088;2022-11-15T10:13:49;25.48;;;13.65;;
73264;SDS011;61493;51.008;14.088;2022-11-15T10:24:23;27.98;;;13.27;;
73264;SDS011;61493;51.008;14.088;2022-11-15T10:26:51;24.27;;;14.13;;
73264;SDS011;61493;51.008;14.088;2022-11-15T10:29:20;25.20;;;14.02;;
73264;SDS011;61493;51.008;14.088;2022-11-15T10:31:48;25.40;;;13.07;;
73264;SDS011;61493;51.008;14.088;2022-11-15T10:34:15;29.98;;;14.85;;
73264;SDS011;61493;51.008;14.088;2022-11-15T10:36:54;26.95;;;13.32;;
73264;SDS011;61493;51.008;14.088;2022-11-15T10:39:20;26.80;;;14.23;;
73264;SDS011;61493;51.008;14.088;2022-11-15T10:41:45;24.27;;;12.80;;
73264;SDS011;61493;51.008;14.088;2022-11-15T10:49:56;20.88;;;13.10;;
73264;SDS011;61493;51.008;14.088;2022-11-15T10:52:22;22.98;;;12.13;;
73264;SDS011;61493;51.008;14.088;2022-11-15T10:55:00;26.02;;;14.10;;
73264;SDS011;61493;51.008;14.088;2022-11-15T10:57:29;26.20;;;13.05;;
73264;SDS011;61493;51.008;14.088;2022-11-15T10:59:59;27.95;;;13.82;;
73264;SDS011;61493;51.008;14.088;2022-11-15T11:05:01;23.35;;;13.40;;
73264;SDS011;61493;51.008;14.088;2022-11-15T11:07:32;24.08;;;12.73;;
73264;SDS011;61493;51.008;14.088;2022-11-15T11:10:00;20.88;;;11.70;;
73264;SDS011;61493;51.008;14.088;2022-11-15T11:12:46;23.90;;;13.18;;
73264;SDS011;61493;51.008;14.088;2022-11-15T11:15:14;21.52;;;12.60;;
73264;SDS011;61493;51.008;14.088;2022-11-15T11:17:48;24.08;;;13.07;;
73264;SDS011;61493;51.008;14.088;2022-11-15T11:20:27;25.83;;;13.77;;
73264;SDS011;61493;51.008;14.088;2022-11-15T11:32:10;25.77;;;11.90;;
73264;SDS011;61493;51.008;14.088;2022-11-15T11:34:50;24.35;;;13.75;;
73264;SDS011;61493;51.008;14.088;2022-11-15T11:48:40;25.70;;;13.48;;
73264;SDS011;61493;51.008;14.088;2022-11-15T11:51:13;28.08;;;14.38;;
73264;SDS011;61493;51.008;14.088;2022-11-15T11:53:41;25.30;;;12.80;;
73264;SDS011;61493;51.008;14.088;2022-11-15T11:56:13;21.13;;;11.75;;
73264;SDS011;61493;51.008;14.088;2022-11-15T11:59:05;24.45;;;13.23;;
73264;SDS011;61493;51.008;14.088;2022-11-15T12:01:53;25.52;;;14.50;;
73264;SDS011;61493;51.008;14.088;2022-11-15T12:04:28;26.30;;;13.63;;
73264;SDS011;61493;51.008;14.088;2022-11-15T12:09:44;26.88;;;13.93;;
73264;SDS011;61493;51.008;14.088;2022-11-15T12:12:25;25.90;;;12.15;;
73264;SDS011;61493;51.008;14.088;2022-11-15T12:14:57;30.77;;;13.10;;
73264;SDS011;61493;51.008;14.088;2022-11-15T12:17:26;30.77;;;13.77;;
73264;SDS011;61493;51.008;14.088;2022-11-15T12:19:57;26.13;;;13.77;;
73264;SDS011;61493;51.008;14.088;2022-11-15T12:22:43;28.85;;;15.25;;
73264;SDS011;61493;51.008;14.088;2022-11-15T12:25:33;30.20;;;14.10;;
73264;SDS011;61493;51.008;14.088;2022-11-15T12:28:08;26.73;;;13.15;;
73264;SDS011;61493;51.008;14.088;2022-11-15T12:30:44;28.77;;;14.75;;
73264;SDS011;61493;51.008;14.088;2022-11-15T12:33:31;30.40;;;15.65;;
73264;SDS011;61493;51.008;14.088;2022-11-15T12:36:02;28.65;;;14.70;;
73264;SDS011;61493;51.008;14.088;2022-11-15T12:41:17;24.30;;;11.88;;
73264;SDS011;61493;51.008;14.088;2022-11-15T12:43:44;26.52;;;13.82;;
73264;SDS011;61493;51.008;14.088;2022-11-15T12:46:12;25.65;;;14.23;;
73264;SDS011;61493;51.008;14.088;2022-11-15T12:51:11;30.60;;;14.15;;
73264;SDS011;61493;51.008;14.088;2022-11-15T12:53:36;29.38;;;14.25;;
73264;SDS011;61493;51.008;14.088;2022-11-15T12:58:39;28.77;;;14.68;;
73264;SDS011;61493;51.008;14.088;2022-11-15T13:01:08;31.20;;;15.57;;
73264;SDS011;61493;51.008;14.088;2022-11-15T13:03:34;30.83;;;14.77;;
73264;SDS011;61493;51.008;14.088;2022-11-15T13:06:01;28.17;;;14.48;;
73264;SDS011;61493;51.008;14.088;2022-11-15T13:08:48;29.70;;;13.43;;
73264;SDS011;61493;51.008;14.088;2022-11-15T13:16:59;31.95;;;15.05;;
73264;SDS011;61493;51.008;14.088;2022-11-15T13:19:27;32.38;;;15.25;;
73264;SDS011;61493;51.008;14.088;2022-11-15T13:21:53;30.20;;;15.07;;
73264;SDS011;61493;51.008;14.088;2022-11-15T13:24:38;34.83;;;13.57;;
73264;SDS011;61493;51.008;14.088;2022-11-15T13:27:24;34.08;;;15.48;;
73264;SDS011;61493;51.008;14.088;2022-11-15T13:29:49;31.85;;;15.63;;
73264;SDS011;61493;51.008;14.088;2022-11-15T13:32:15;32.13;;;16.75;;
73264;SDS011;61493;51.008;14.088;2022-11-15T13:34:45;30.60;;;14.20;;
73264;SDS011;61493;51.008;14.088;2022-11-15T13:37:27;30.65;;;16.52;;
73264;SDS011;61493;51.008;14.088;2022-11-15T13:39:54;32.90;;;15.82;;
73264;SDS011;61493;51.008;14.088;2022-11-15T13:50:20;33.35;;;17.33;;
73264;SDS011;61493;51.008;14.088;2022-11-15T13:52:49;30.83;;;15.50;;
73264;SDS011;61493;51.008;14.088;2022-11-15T13:55:19;29.70;;;14.75;;
73264;SDS011;61493;51.008;14.088;2022-11-15T13:57:48;38.08;;;19.85;;
73264;SDS011;61493;51.008;14.088;2022-11-15T14:00:59;42.33;;;18.75;;
73264;SDS011;61493;51.008;14.088;2022-11-15T14:03:26;30.30;;;16.20;;
73264;SDS011;61493;51.008;14.088;2022-11-15T14:08:32;35.25;;;17.52;;
73264;SDS011;61493;51.008;14.088;2022-11-15T14:13:37;33.20;;;15.60;;
73264;SDS011;61493;51.008;14.088;2022-11-15T14:16:17;35.13;;;17.45;;
73264;SDS011;61493;51.008;14.088;2022-11-15T14:21:15;41.47;;;18.08;;
73264;SDS011;61493;51.008;14.088;2022-11-15T14:23:40;38.63;;;18.20;;
73264;SDS011;61493;51.008;14.088;2022-11-15T14:26:10;35.13;;;16.88;;
73264;SDS011;61493;51.008;14.088;2022-11-15T14:28:50;38.55;;;18.05;;
73264;SDS011;61493;51.008;14.088;2022-11-15T14:31:15;39.67;;;18.95;;
73264;SDS011;61493;51.008;14.088;2022-11-15T14:33:41;39.95;;;19.33;;
73264;SDS011;61493;51.008;14.088;2022-11-15T14:36:11;41.40;;;18.40;;
73264;SDS011;61493;51.008;14.088;2022-11-15T14:38:37;42.20;;;19.13;;
73264;SDS011;61493;51.008;14.088;2022-11-15T14:41:02;33.72;;;17.50;;
73264;SDS011;61493;51.008;14.088;2022-11-15T14:43:28;44.40;;;20.13;;
73264;SDS011;61493;51.008;14.088;2022-11-15T14:45:53;36.88;;;17.88;;
73264;SDS011;61493;51.008;14.088;2022-11-15T14:48:19;44.63;;;20.52;;
73264;SDS011;61493;51.008;14.088;2022-11-15T14:50:44;39.95;;;17.45;;
73264;SDS011;61493;51.008;14.088;2022-11-15T14:53:16;37.78;;;18.20;;
73264;SDS011;61493;51.008;14.088;2022-11-15T14:55:43;45.13;;;20.42;;
73264;SDS011;61493;51.008;14.088;2022-11-15T14:58:08;46.40;;;21.50;;
73264;SDS011;61493;51.008;14.088;2022-11-15T15:00:38;41.53;;;18.17;;
73264;SDS011;61493;51.008;14.088;2022-11-15T15:03:05;45.30;;;18.92;;
73264;SDS011;61493;51.008;14.088;2022-11-15T15:05:32;39.10;;;17.30;;
73264;SDS011;61493;51.008;14.088;2022-11-15T15:07:59;34.95;;;17.88;;
73264;SDS011;61493;51.008;14.088;2022-11-15T15:10:31;39.33;;;19.60;;
73264;SDS011;61493;51.008;14.088;2022-11-15T15:12:58;46.20;;;20.27;;
73264;SDS011;61493;51.008;14.088;2022-11-15T15:15:25;47.22;;;22.08;;
73264;SDS011;61493;51.008;14.088;2022-11-15T15:17:54;43.00;;;19.30;;
73264;SDS011;61493;51.008;14.088;2022-11-15T15:20:22;45.83;;;20.90;;
73264;SDS011;61493;51.008;14.088;2022-11-15T15:22:53;39.85;;;20.80;;
73264;SDS011;61493;51.008;14.088;2022-11-15T15:25:20;48.60;;;22.33;;
73264;SDS011;61493;51.008;14.088;2022-11-15T15:27:48;37.10;;;19.80;;
73264;SDS011;61493;51.008;14.088;2022-11-15T15:30:16;50.75;;;22.83;;
73264;SDS011;61493;51.008;14.088;2022-11-15T15:32:42;50.10;;;20.17;;
73264;SDS011;61493;51.008;14.088;2022-11-15T15:35:07;50.10;;;22.33;;
73264;SDS011;61493;51.008;14.088;2022-11-15T15:37:35;40.92;;;16.52;;
73264;SDS011;61493;51.008;14.088;2022-11-15T15:40:01;42.72;;;18.92;;
73264;SDS011;61493;51.008;14.088;2022-11-15T15:42:26;41.58;;;16.50;;
73264;SDS011;61493;51.008;14.088;2022-11-15T15:44:51;36.75;;;16.48;;
73264;SDS011;61493;51.008;14.088;2022-11-15T15:47:20;56.70;;;24.27;;
73264;SDS011;61493;51.008;14.088;2022-11-15T15:49:47;50.47;;;22.42;;
73264;SDS011;61493;51.008;14.088;2022-11-15T15:52:13;51.10;;;22.03;;
73264;SDS011;61493;51.008;14.088;2022-11-15T15:54:38;48.78;;;19.67;;
73264;SDS011;61493;51.008;14.088;2022-11-15T15:57:05;48.72;;;21.27;;
73264;SDS011;61493;51.008;14.088;2022-11-15T15:59:31;47.10;;;20.48;;
73264;SDS011;61493;51.008;14.088;2022-11-15T16:01:56;42.22;;;19.10;;
73264;SDS011;61493;51.008;14.088;2022-11-15T16:04:21;49.65;;;22.42;;
73264;SDS011;61493;51.008;14.088;2022-11-15T16:06:47;44.17;;;19.45;;
73264;SDS011;61493;51.008;14.088;2022-11-15T16:09:16;48.33;;;22.83;;
73264;SDS011;61493;51.008;14.088;2022-11-15T16:11:44;43.47;;;17.85;;
73264;SDS011;61493;51.008;14.088;2022-11-15T16:14:10;43.20;;;18.98;;
73264;SDS011;61493;51.008;14.088;2022-11-15T16:16:35;59.60;;;24.43;;
73264;SDS011;61493;51.008;14.088;2022-11-15T16:19:01;50.75;;;19.85;;
73264;SDS011;61493;51.008;14.088;2022-11-15T16:21:28;49.60;;;21.92;;
73264;SDS011;61493;51.008;14.088;2022-11-15T16:23:55;45.67;;;21.50;;
73264;SDS011;61493;51.008;14.088;2022-11-15T16:26:22;54.55;;;22.75;;
73264;SDS011;61493;51.008;14.088;2022-11-15T16:28:50;48.90;;;22.58;;